sensor_id;sensor_type;location;lat;lon;timestamp;P1;durP1;ratioP1;P2;durP2;ratioP2
25125;SDS011;13106;50.808;5.670;2023-03-01T00:02:17;15.32;;;10.85;;
25125;SDS011;13106;50.808;5.670;2023-03-01T00:04:43;22.38;;;13.27;;
25125;SDS011;13106;50.808;5.670;2023-03-01T00:07:09;19.77;;;14.60;;
25125;SDS011;13106;50.808;5.670;2023-03-01T00:09:36;17.05;;;11.35;;
25125;SDS011;13106;50.808;5.670;2023-03-01T00:12:02;17.35;;;11.73;;
25125;SDS011;13106;50.808;5.670;2023-03-01T00:14:28;13.38;;;10.68;;
25125;SDS011;13106;50.808;5.670;2023-03-01T00:16:54;15.95;;;11.15;;
25125;SDS011;13106;50.808;5.670;2023-03-01T00:19:20;17.58;;;10.98;;
25125;SDS011;13106;50.808;5.670;2023-03-01T00:21:47;17.75;;;11.40;;
25125;SDS011;13106;50.808;5.670;2023-03-01T00:24:13;13.95;;;10.20;;
25125;SDS011;13106;50.808;5.670;2023-03-01T00:26:40;17.13;;;11.40;;
25125;SDS011;13106;50.808;5.670;2023-03-01T00:29:06;15.25;;;10.25;;
25125;SDS011;13106;50.808;5.670;2023-03-01T00:31:32;17.20;;;10.93;;
25125;SDS011;13106;50.808;5.670;2023-03-01T00:33:59;14.40;;;11.23;;
25125;SDS011;13106;50.808;5.670;2023-03-01T00:36:27;15.60;;;10.80;;
25125;SDS011;13106;50.808;5.670;2023-03-01T00:38:53;16.13;;;11.15;;
25125;SDS011;13106;50.808;5.670;2023-03-01T00:41:20;18.80;;;11.45;;
25125;SDS011;13106;50.808;5.670;2023-03-01T00:43:48;15.15;;;11.55;;
25125;SDS011;13106;50.808;5.670;2023-03-01T00:46:15;15.20;;;11.90;;
25125;SDS011;13106;50.808;5.670;2023-03-01T00:48:42;15.45;;;12.10;;
25125;SDS011;13106;50.808;5.670;2023-03-01T00:51:09;17.70;;;13.35;;
25125;SDS011;13106;50.808;5.670;2023-03-01T00:53:35;15.15;;;11.55;;
25125;SDS011;13106;50.808;5.670;2023-03-01T00:56:02;17.38;;;12.65;;
25125;SDS011;13106;50.808;5.670;2023-03-01T00:58:28;16.98;;;11.98;;
25125;SDS011;13106;50.808;5.670;2023-03-01T01:00:54;16.55;;;11.77;;
25125;SDS011;13106;50.808;5.670;2023-03-01T01:03:21;17.10;;;11.90;;
25125;SDS011;13106;50.808;5.670;2023-03-01T01:05:48;17.17;;;12.15;;
25125;SDS011;13106;50.808;5.670;2023-03-01T01:08:14;20.40;;;12.75;;
25125;SDS011;13106;50.808;5.670;2023-03-01T01:10:40;17.67;;;11.77;;
25125;SDS011;13106;50.808;5.670;2023-03-01T01:13:08;18.58;;;12.60;;
25125;SDS011;13106;50.808;5.670;2023-03-01T01:15:34;21.63;;;12.15;;
25125;SDS011;13106;50.808;5.670;2023-03-01T01:18:01;17.08;;;11.98;;
25125;SDS011;13106;50.808;5.670;2023-03-01T01:20:27;19.05;;;11.48;;
25125;SDS011;13106;50.808;5.670;2023-03-01T01:22:53;17.95;;;12.60;;
25125;SDS011;13106;50.808;5.670;2023-03-01T01:25:19;18.27;;;12.55;;
25125;SDS011;13106;50.808;5.670;2023-03-01T01:27:45;16.40;;;12.35;;
25125;SDS011;13106;50.808;5.670;2023-03-01T01:30:11;18.05;;;12.68;;
25125;SDS011;13106;50.808;5.670;2023-03-01T01:32:38;18.05;;;12.88;;
25125;SDS011;13106;50.808;5.670;2023-03-01T01:35:04;17.02;;;12.23;;
25125;SDS011;13106;50.808;5.670;2023-03-01T01:37:30;17.08;;;11.82;;
25125;SDS011;13106;50.808;5.670;2023-03-01T01:39:59;18.75;;;12.38;;
25125;SDS011;13106;50.808;5.670;2023-03-01T01:42:26;19.60;;;12.17;;
25125;SDS011;13106;50.808;5.670;2023-03-01T01:47:37;18.65;;;13.25;;
25125;SDS011;13106;50.808;5.670;2023-03-01T01:50:03;17.77;;;12.10;;
25125;SDS011;13106;50.808;5.670;2023-03-01T01:52:31;17.80;;;12.60;;
25125;SDS011;13106;50.808;5.670;2023-03-01T01:55:10;19.70;;;12.90;;
25125;SDS011;13106;50.808;5.670;2023-03-01T01:57:42;21.33;;;13.10;;
25125;SDS011;13106;50.808;5.670;2023-03-01T02:00:13;15.43;;;12.48;;
25125;SDS011;13106;50.808;5.670;2023-03-01T02:02:39;20.40;;;13.32;;
25125;SDS011;13106;50.808;5.670;2023-03-01T02:05:26;17.13;;;13.27;;
25125;SDS011;13106;50.808;5.670;2023-03-01T02:07:55;18.08;;;12.70;;
25125;SDS011;13106;50.808;5.670;2023-03-01T02:10:22;17.88;;;12.20;;
25125;SDS011;13106;50.808;5.670;2023-03-01T02:12:49;17.50;;;12.65;;
25125;SDS011;13106;50.808;5.670;2023-03-01T02:15:15;18.33;;;12.75;;
25125;SDS011;13106;50.808;5.670;2023-03-01T02:17:41;18.15;;;13.07;;
25125;SDS011;13106;50.808;5.670;2023-03-01T02:22:34;18.42;;;12.80;;
25125;SDS011;13106;50.808;5.670;2023-03-01T02:25:12;18.02;;;12.98;;
25125;SDS011;13106;50.808;5.670;2023-03-01T02:27:55;18.05;;;12.52;;
25125;SDS011;13106;50.808;5.670;2023-03-01T02:30:24;21.85;;;12.35;;
25125;SDS011;13106;50.808;5.670;2023-03-01T02:32:53;18.65;;;13.43;;
25125;SDS011;13106;50.808;5.670;2023-03-01T02:35:21;19.95;;;13.70;;
25125;SDS011;13106;50.808;5.670;2023-03-01T02:37:47;19.80;;;13.50;;
25125;SDS011;13106;50.808;5.670;2023-03-01T02:40:16;19.02;;;13.32;;
25125;SDS011;13106;50.808;5.670;2023-03-01T02:42:53;18.67;;;13.88;;
25125;SDS011;13106;50.808;5.670;2023-03-01T02:45:20;18.00;;;13.93;;
25125;SDS011;13106;50.808;5.670;2023-03-01T02:47:46;21.33;;;13.85;;
25125;SDS011;13106;50.808;5.670;2023-03-01T02:50:15;20.05;;;13.38;;
25125;SDS011;13106;50.808;5.670;2023-03-01T02:55:31;17.40;;;13.23;;
25125;SDS011;13106;50.808;5.670;2023-03-01T02:57:56;20.85;;;13.73;;
25125;SDS011;13106;50.808;5.670;2023-03-01T03:00:26;22.23;;;14.48;;
25125;SDS011;13106;50.808;5.670;2023-03-01T03:02:54;20.10;;;13.93;;
25125;SDS011;13106;50.808;5.670;2023-03-01T03:05:30;21.48;;;13.90;;
25125;SDS011;13106;50.808;5.670;2023-03-01T03:07:57;21.80;;;14.30;;
25125;SDS011;13106;50.808;5.670;2023-03-01T03:10:27;19.30;;;13.07;;
25125;SDS011;13106;50.808;5.670;2023-03-01T03:12:58;19.05;;;13.65;;
25125;SDS011;13106;50.808;5.670;2023-03-01T03:15:25;18.63;;;14.82;;
25125;SDS011;13106;50.808;5.670;2023-03-01T03:17:51;18.98;;;14.00;;
25125;SDS011;13106;50.808;5.670;2023-03-01T03:20:18;19.13;;;13.40;;
25125;SDS011;13106;50.808;5.670;2023-03-01T03:22:49;17.65;;;14.00;;
25125;SDS011;13106;50.808;5.670;2023-03-01T03:25:16;20.33;;;14.57;;
25125;SDS011;13106;50.808;5.670;2023-03-01T03:27:42;21.40;;;15.27;;
25125;SDS011;13106;50.808;5.670;2023-03-01T03:30:09;19.58;;;13.90;;
25125;SDS011;13106;50.808;5.670;2023-03-01T03:32:40;16.83;;;13.18;;
25125;SDS011;13106;50.808;5.670;2023-03-01T03:35:08;21.50;;;14.40;;
25125;SDS011;13106;50.808;5.670;2023-03-01T03:37:38;19.02;;;13.70;;
25125;SDS011;13106;50.808;5.670;2023-03-01T03:40:23;15.07;;;12.77;;
25125;SDS011;13106;50.808;5.670;2023-03-01T03:42:49;17.67;;;13.65;;
25125;SDS011;13106;50.808;5.670;2023-03-01T03:45:15;21.50;;;14.20;;
25125;SDS011;13106;50.808;5.670;2023-03-01T03:47:42;23.58;;;14.95;;
25125;SDS011;13106;50.808;5.670;2023-03-01T03:50:09;17.70;;;13.48;;
25125;SDS011;13106;50.808;5.670;2023-03-01T03:52:35;20.33;;;14.02;;
25125;SDS011;13106;50.808;5.670;2023-03-01T03:55:01;17.02;;;13.68;;
25125;SDS011;13106;50.808;5.670;2023-03-01T03:57:27;18.63;;;15.07;;
25125;SDS011;13106;50.808;5.670;2023-03-01T03:59:53;23.23;;;14.85;;
25125;SDS011;13106;50.808;5.670;2023-03-01T04:02:19;21.00;;;15.13;;
25125;SDS011;13106;50.808;5.670;2023-03-01T04:04:49;19.75;;;13.80;;
25125;SDS011;13106;50.808;5.670;2023-03-01T04:07:15;20.90;;;14.02;;
25125;SDS011;13106;50.808;5.670;2023-03-01T04:09:42;21.88;;;14.07;;
25125;SDS011;13106;50.808;5.670;2023-03-01T04:12:08;21.55;;;14.80;;
25125;SDS011;13106;50.808;5.670;2023-03-01T04:14:34;18.65;;;14.65;;
25125;SDS011;13106;50.808;5.670;2023-03-01T04:17:00;19.92;;;14.50;;
25125;SDS011;13106;50.808;5.670;2023-03-01T04:19:29;19.73;;;14.68;;
25125;SDS011;13106;50.808;5.670;2023-03-01T04:22:00;20.17;;;15.55;;
25125;SDS011;13106;50.808;5.670;2023-03-01T04:24:32;18.65;;;14.63;;
25125;SDS011;13106;50.808;5.670;2023-03-01T04:26:58;18.52;;;14.68;;
25125;SDS011;13106;50.808;5.670;2023-03-01T04:29:24;21.45;;;15.48;;
25125;SDS011;13106;50.808;5.670;2023-03-01T04:31:50;21.30;;;16.25;;
25125;SDS011;13106;50.808;5.670;2023-03-01T04:34:16;21.48;;;15.18;;
25125;SDS011;13106;50.808;5.670;2023-03-01T04:36:42;20.88;;;15.55;;
25125;SDS011;13106;50.808;5.670;2023-03-01T04:39:08;21.05;;;15.98;;
25125;SDS011;13106;50.808;5.670;2023-03-01T04:41:38;21.23;;;15.85;;
25125;SDS011;13106;50.808;5.670;2023-03-01T04:44:04;20.98;;;15.43;;
25125;SDS011;13106;50.808;5.670;2023-03-01T04:46:30;20.92;;;14.25;;
25125;SDS011;13106;50.808;5.670;2023-03-01T04:48:56;24.33;;;16.55;;
25125;SDS011;13106;50.808;5.670;2023-03-01T04:51:22;21.83;;;16.10;;
25125;SDS011;13106;50.808;5.670;2023-03-01T04:53:48;26.67;;;15.90;;
25125;SDS011;13106;50.808;5.670;2023-03-01T04:56:15;20.58;;;16.20;;
25125;SDS011;13106;50.808;5.670;2023-03-01T04:58:43;22.30;;;16.33;;
25125;SDS011;13106;50.808;5.670;2023-03-01T05:01:13;22.63;;;16.30;;
25125;SDS011;13106;50.808;5.670;2023-03-01T05:03:43;19.65;;;15.45;;
25125;SDS011;13106;50.808;5.670;2023-03-01T05:06:09;22.77;;;16.65;;
25125;SDS011;13106;50.808;5.670;2023-03-01T05:08:36;18.48;;;15.18;;
25125;SDS011;13106;50.808;5.670;2023-03-01T05:11:02;24.25;;;17.23;;
25125;SDS011;13106;50.808;5.670;2023-03-01T05:13:28;25.48;;;15.98;;
25125;SDS011;13106;50.808;5.670;2023-03-01T05:15:55;23.52;;;15.27;;
25125;SDS011;13106;50.808;5.670;2023-03-01T05:18:22;20.35;;;15.65;;
25125;SDS011;13106;50.808;5.670;2023-03-01T05:20:50;21.45;;;16.27;;
25125;SDS011;13106;50.808;5.670;2023-03-01T05:23:17;24.75;;;16.80;;
25125;SDS011;13106;50.808;5.670;2023-03-01T05:25:43;23.35;;;16.65;;
25125;SDS011;13106;50.808;5.670;2023-03-01T05:28:13;24.88;;;16.55;;
25125;SDS011;13106;50.808;5.670;2023-03-01T05:30:39;20.50;;;16.58;;
25125;SDS011;13106;50.808;5.670;2023-03-01T05:33:06;23.00;;;16.33;;
25125;SDS011;13106;50.808;5.670;2023-03-01T05:35:38;22.25;;;15.50;;
25125;SDS011;13106;50.808;5.670;2023-03-01T05:38:05;23.55;;;16.70;;
25125;SDS011;13106;50.808;5.670;2023-03-01T05:40:32;22.17;;;16.23;;
25125;SDS011;13106;50.808;5.670;2023-03-01T05:42:59;23.48;;;16.60;;
25125;SDS011;13106;50.808;5.670;2023-03-01T05:45:26;18.77;;;16.30;;
25125;SDS011;13106;50.808;5.670;2023-03-01T05:47:52;21.73;;;15.93;;
25125;SDS011;13106;50.808;5.670;2023-03-01T05:50:23;19.83;;;16.10;;
25125;SDS011;13106;50.808;5.670;2023-03-01T05:52:51;21.63;;;15.75;;
25125;SDS011;13106;50.808;5.670;2023-03-01T05:55:18;23.20;;;15.93;;
25125;SDS011;13106;50.808;5.670;2023-03-01T05:57:44;22.63;;;16.58;;
25125;SDS011;13106;50.808;5.670;2023-03-01T06:00:11;24.45;;;17.40;;
25125;SDS011;13106;50.808;5.670;2023-03-01T06:02:38;23.85;;;16.85;;
25125;SDS011;13106;50.808;5.670;2023-03-01T06:05:05;24.98;;;17.02;;
25125;SDS011;13106;50.808;5.670;2023-03-01T06:07:31;23.65;;;16.60;;
25125;SDS011;13106;50.808;5.670;2023-03-01T06:09:57;23.42;;;16.08;;
25125;SDS011;13106;50.808;5.670;2023-03-01T06:12:23;25.27;;;16.75;;
25125;SDS011;13106;50.808;5.670;2023-03-01T06:14:49;24.08;;;17.40;;
25125;SDS011;13106;50.808;5.670;2023-03-01T06:17:16;26.15;;;17.27;;
25125;SDS011;13106;50.808;5.670;2023-03-01T06:19:42;23.77;;;17.60;;
25125;SDS011;13106;50.808;5.670;2023-03-01T06:22:07;21.13;;;15.88;;
25125;SDS011;13106;50.808;5.670;2023-03-01T06:24:34;22.73;;;17.50;;
25125;SDS011;13106;50.808;5.670;2023-03-01T06:27:00;24.25;;;18.00;;
25125;SDS011;13106;50.808;5.670;2023-03-01T06:29:26;21.25;;;16.27;;
25125;SDS011;13106;50.808;5.670;2023-03-01T06:31:52;24.90;;;18.02;;
25125;SDS011;13106;50.808;5.670;2023-03-01T06:34:18;27.48;;;19.23;;
25125;SDS011;13106;50.808;5.670;2023-03-01T06:36:46;22.58;;;17.90;;
25125;SDS011;13106;50.808;5.670;2023-03-01T06:39:12;24.02;;;16.02;;
25125;SDS011;13106;50.808;5.670;2023-03-01T06:41:38;23.58;;;16.15;;
25125;SDS011;13106;50.808;5.670;2023-03-01T06:44:04;24.00;;;16.80;;
25125;SDS011;13106;50.808;5.670;2023-03-01T06:46:31;22.90;;;17.40;;
25125;SDS011;13106;50.808;5.670;2023-03-01T06:48:56;22.48;;;15.93;;
25125;SDS011;13106;50.808;5.670;2023-03-01T06:51:22;26.90;;;17.40;;
25125;SDS011;13106;50.808;5.670;2023-03-01T06:53:49;27.40;;;17.13;;
25125;SDS011;13106;50.808;5.670;2023-03-01T06:56:15;24.60;;;16.88;;
25125;SDS011;13106;50.808;5.670;2023-03-01T06:58:41;26.25;;;16.77;;
25125;SDS011;13106;50.808;5.670;2023-03-01T07:01:07;23.83;;;18.02;;
25125;SDS011;13106;50.808;5.670;2023-03-01T07:03:33;22.83;;;17.58;;
25125;SDS011;13106;50.808;5.670;2023-03-01T07:06:00;23.70;;;17.27;;
25125;SDS011;13106;50.808;5.670;2023-03-01T07:08:26;27.48;;;17.90;;
25125;SDS011;13106;50.808;5.670;2023-03-01T07:10:56;23.63;;;17.08;;
25125;SDS011;13106;50.808;5.670;2023-03-01T07:13:22;23.42;;;17.73;;
25125;SDS011;13106;50.808;5.670;2023-03-01T07:15:48;22.95;;;16.40;;
25125;SDS011;13106;50.808;5.670;2023-03-01T07:18:14;25.23;;;18.02;;
25125;SDS011;13106;50.808;5.670;2023-03-01T07:20:40;24.40;;;17.40;;
25125;SDS011;13106;50.808;5.670;2023-03-01T07:23:06;23.95;;;17.63;;
25125;SDS011;13106;50.808;5.670;2023-03-01T07:25:33;23.80;;;17.20;;
25125;SDS011;13106;50.808;5.670;2023-03-01T07:27:59;24.13;;;17.45;;
25125;SDS011;13106;50.808;5.670;2023-03-01T07:30:25;23.98;;;17.60;;
25125;SDS011;13106;50.808;5.670;2023-03-01T07:32:53;22.42;;;17.35;;
25125;SDS011;13106;50.808;5.670;2023-03-01T07:35:19;25.67;;;17.48;;
25125;SDS011;13106;50.808;5.670;2023-03-01T07:37:45;24.02;;;17.38;;
25125;SDS011;13106;50.808;5.670;2023-03-01T07:40:11;22.48;;;16.42;;
25125;SDS011;13106;50.808;5.670;2023-03-01T07:42:37;22.38;;;17.15;;
25125;SDS011;13106;50.808;5.670;2023-03-01T07:45:04;21.83;;;17.63;;
25125;SDS011;13106;50.808;5.670;2023-03-01T07:47:31;20.73;;;15.85;;
25125;SDS011;13106;50.808;5.670;2023-03-01T07:49:57;24.15;;;16.05;;
25125;SDS011;13106;50.808;5.670;2023-03-01T07:52:24;23.70;;;16.73;;
25125;SDS011;13106;50.808;5.670;2023-03-01T07:54:50;25.30;;;16.45;;
25125;SDS011;13106;50.808;5.670;2023-03-01T07:57:16;25.08;;;18.20;;
25125;SDS011;13106;50.808;5.670;2023-03-01T07:59:42;25.20;;;16.60;;
25125;SDS011;13106;50.808;5.670;2023-03-01T08:02:08;22.13;;;16.95;;
25125;SDS011;13106;50.808;5.670;2023-03-01T08:04:35;22.20;;;16.17;;
25125;SDS011;13106;50.808;5.670;2023-03-01T08:07:01;22.85;;;14.88;;
25125;SDS011;13106;50.808;5.670;2023-03-01T08:09:27;22.02;;;15.95;;
25125;SDS011;13106;50.808;5.670;2023-03-01T08:11:53;19.27;;;15.63;;
25125;SDS011;13106;50.808;5.670;2023-03-01T08:14:19;24.25;;;17.08;;
25125;SDS011;13106;50.808;5.670;2023-03-01T08:16:48;21.27;;;17.33;;
25125;SDS011;13106;50.808;5.670;2023-03-01T08:19:14;23.75;;;15.85;;
25125;SDS011;13106;50.808;5.670;2023-03-01T08:21:40;22.10;;;15.95;;
25125;SDS011;13106;50.808;5.670;2023-03-01T08:24:06;22.27;;;16.05;;
25125;SDS011;13106;50.808;5.670;2023-03-01T08:26:33;21.08;;;14.65;;
25125;SDS011;13106;50.808;5.670;2023-03-01T08:28:59;21.38;;;14.77;;
25125;SDS011;13106;50.808;5.670;2023-03-01T08:31:27;21.70;;;15.40;;
25125;SDS011;13106;50.808;5.670;2023-03-01T08:33:57;22.90;;;17.30;;
25125;SDS011;13106;50.808;5.670;2023-03-01T08:36:25;19.17;;;15.60;;
25125;SDS011;13106;50.808;5.670;2023-03-01T08:38:51;18.70;;;15.50;;
25125;SDS011;13106;50.808;5.670;2023-03-01T08:41:18;20.23;;;14.07;;
25125;SDS011;13106;50.808;5.670;2023-03-01T08:43:44;21.13;;;16.13;;
25125;SDS011;13106;50.808;5.670;2023-03-01T08:46:10;23.45;;;16.23;;
25125;SDS011;13106;50.808;5.670;2023-03-01T08:48:36;20.60;;;17.40;;
25125;SDS011;13106;50.808;5.670;2023-03-01T08:53:34;23.17;;;15.73;;
25125;SDS011;13106;50.808;5.670;2023-03-01T08:56:03;24.58;;;15.50;;
25125;SDS011;13106;50.808;5.670;2023-03-01T08:58:29;21.92;;;15.65;;
25125;SDS011;13106;50.808;5.670;2023-03-01T09:00:55;20.73;;;15.13;;
25125;SDS011;13106;50.808;5.670;2023-03-01T09:03:22;19.90;;;14.45;;
25125;SDS011;13106;50.808;5.670;2023-03-01T09:05:49;23.42;;;15.68;;
25125;SDS011;13106;50.808;5.670;2023-03-01T09:08:15;25.77;;;15.57;;
25125;SDS011;13106;50.808;5.670;2023-03-01T09:10:41;24.15;;;14.10;;
25125;SDS011;13106;50.808;5.670;2023-03-01T09:13:08;21.25;;;18.42;;
25125;SDS011;13106;50.808;5.670;2023-03-01T09:15:35;24.52;;;16.42;;
25125;SDS011;13106;50.808;5.670;2023-03-01T09:18:02;22.42;;;14.70;;
25125;SDS011;13106;50.808;5.670;2023-03-01T09:20:28;23.00;;;15.30;;
25125;SDS011;13106;50.808;5.670;2023-03-01T09:22:54;25.67;;;16.45;;
25125;SDS011;13106;50.808;5.670;2023-03-01T09:25:20;22.67;;;14.68;;
25125;SDS011;13106;50.808;5.670;2023-03-01T09:27:46;21.08;;;13.00;;
25125;SDS011;13106;50.808;5.670;2023-03-01T09:30:12;25.48;;;14.60;;
25125;SDS011;13106;50.808;5.670;2023-03-01T09:32:38;17.88;;;12.93;;
25125;SDS011;13106;50.808;5.670;2023-03-01T09:35:08;20.20;;;13.93;;
25125;SDS011;13106;50.808;5.670;2023-03-01T09:37:34;18.17;;;13.52;;
25125;SDS011;13106;50.808;5.670;2023-03-01T09:40:02;16.73;;;13.07;;
25125;SDS011;13106;50.808;5.670;2023-03-01T09:42:29;20.23;;;12.75;;
25125;SDS011;13106;50.808;5.670;2023-03-01T09:47:24;18.30;;;13.48;;
25125;SDS011;13106;50.808;5.670;2023-03-01T09:50:10;21.92;;;13.50;;
25125;SDS011;13106;50.808;5.670;2023-03-01T09:55:08;24.30;;;13.95;;
25125;SDS011;13106;50.808;5.670;2023-03-01T09:57:38;21.42;;;14.07;;
25125;SDS011;13106;50.808;5.670;2023-03-01T10:02:41;24.23;;;15.18;;
25125;SDS011;13106;50.808;5.670;2023-03-01T10:05:13;24.42;;;14.73;;
25125;SDS011;13106;50.808;5.670;2023-03-01T10:07:48;20.65;;;14.07;;
25125;SDS011;13106;50.808;5.670;2023-03-01T10:10:18;20.65;;;14.95;;
25125;SDS011;13106;50.808;5.670;2023-03-01T10:12:47;23.67;;;15.88;;
25125;SDS011;13106;50.808;5.670;2023-03-01T10:15:15;23.85;;;15.40;;
25125;SDS011;13106;50.808;5.670;2023-03-01T10:17:50;23.20;;;13.98;;
25125;SDS011;13106;50.808;5.670;2023-03-01T10:20:30;24.50;;;15.20;;
25125;SDS011;13106;50.808;5.670;2023-03-01T10:22:59;24.17;;;14.95;;
25125;SDS011;13106;50.808;5.670;2023-03-01T10:28:16;19.27;;;13.77;;
25125;SDS011;13106;50.808;5.670;2023-03-01T10:30:42;22.92;;;14.18;;
25125;SDS011;13106;50.808;5.670;2023-03-01T10:33:30;18.65;;;14.38;;
25125;SDS011;13106;50.808;5.670;2023-03-01T10:35:55;21.10;;;14.55;;
25125;SDS011;13106;50.808;5.670;2023-03-01T10:38:21;19.65;;;14.07;;
25125;SDS011;13106;50.808;5.670;2023-03-01T10:40:54;20.77;;;14.38;;
25125;SDS011;13106;50.808;5.670;2023-03-01T10:43:27;23.20;;;14.32;;
25125;SDS011;13106;50.808;5.670;2023-03-01T10:45:56;18.25;;;13.70;;
25125;SDS011;13106;50.808;5.670;2023-03-01T10:51:04;18.73;;;14.35;;
25125;SDS011;13106;50.808;5.670;2023-03-01T10:56:01;20.25;;;13.77;;
25125;SDS011;13106;50.808;5.670;2023-03-01T10:58:27;21.90;;;14.35;;
25125;SDS011;13106;50.808;5.670;2023-03-01T11:00:56;18.48;;;13.50;;
25125;SDS011;13106;50.808;5.670;2023-03-01T11:03:23;21.83;;;14.02;;
25125;SDS011;13106;50.808;5.670;2023-03-01T11:05:51;21.92;;;14.52;;
25125;SDS011;13106;50.808;5.670;2023-03-01T11:08:28;19.05;;;13.80;;
25125;SDS011;13106;50.808;5.670;2023-03-01T11:11:05;20.55;;;14.50;;
25125;SDS011;13106;50.808;5.670;2023-03-01T11:13:31;18.85;;;13.82;;
25125;SDS011;13106;50.808;5.670;2023-03-01T11:15:59;22.60;;;14.52;;
25125;SDS011;13106;50.808;5.670;2023-03-01T11:18:25;22.92;;;14.65;;
25125;SDS011;13106;50.808;5.670;2023-03-01T11:20:52;17.83;;;14.48;;
25125;SDS011;13106;50.808;5.670;2023-03-01T11:23:18;18.35;;;13.60;;
25125;SDS011;13106;50.808;5.670;2023-03-01T11:25:47;17.77;;;13.98;;
25125;SDS011;13106;50.808;5.670;2023-03-01T11:28:16;18.20;;;13.30;;
25125;SDS011;13106;50.808;5.670;2023-03-01T11:31:02;19.58;;;13.90;;
25125;SDS011;13106;50.808;5.670;2023-03-01T11:33:41;16.83;;;13.50;;
25125;SDS011;13106;50.808;5.670;2023-03-01T11:38:41;21.30;;;13.68;;
25125;SDS011;13106;50.808;5.670;2023-03-01T11:41:21;20.77;;;12.77;;
25125;SDS011;13106;50.808;5.670;2023-03-01T11:44:02;17.60;;;12.77;;
25125;SDS011;13106;50.808;5.670;2023-03-01T11:51:48;17.48;;;13.30;;
25125;SDS011;13106;50.808;5.670;2023-03-01T11:57:09;19.33;;;14.00;;
25125;SDS011;13106;50.808;5.670;2023-03-01T11:59:43;19.77;;;14.35;;
25125;SDS011;13106;50.808;5.670;2023-03-01T12:02:24;18.67;;;13.63;;
25125;SDS011;13106;50.808;5.670;2023-03-01T12:15:17;20.10;;;13.35;;
25125;SDS011;13106;50.808;5.670;2023-03-01T12:25:48;16.77;;;12.15;;
25125;SDS011;13106;50.808;5.670;2023-03-01T12:33:46;15.82;;;12.68;;
25125;SDS011;13106;50.808;5.670;2023-03-01T12:49:44;23.27;;;12.93;;
25125;SDS011;13106;50.808;5.670;2023-03-01T12:52:15;17.35;;;12.30;;
25125;SDS011;13106;50.808;5.670;2023-03-01T12:54:43;20.85;;;12.45;;
25125;SDS011;13106;50.808;5.670;2023-03-01T13:03:02;16.10;;;12.25;;
25125;SDS011;13106;50.808;5.670;2023-03-01T13:08:36;18.52;;;13.68;;
25125;SDS011;13106;50.808;5.670;2023-03-01T13:11:05;18.90;;;13.05;;
25125;SDS011;13106;50.808;5.670;2023-03-01T13:13:32;16.50;;;12.52;;
25125;SDS011;13106;50.808;5.670;2023-03-01T13:16:20;17.45;;;12.95;;
25125;SDS011;13106;50.808;5.670;2023-03-01T13:18:44;21.13;;;13.63;;
25125;SDS011;13106;50.808;5.670;2023-03-01T13:21:11;16.33;;;12.40;;
25125;SDS011;13106;50.808;5.670;2023-03-01T13:23:37;19.35;;;12.20;;
25125;SDS011;13106;50.808;5.670;2023-03-01T13:31:08;17.88;;;12.88;;
25125;SDS011;13106;50.808;5.670;2023-03-01T13:44:26;20.15;;;13.52;;
25125;SDS011;13106;50.808;5.670;2023-03-01T13:46:56;17.20;;;11.93;;
25125;SDS011;13106;50.808;5.670;2023-03-01T13:49:25;17.98;;;11.93;;
25125;SDS011;13106;50.808;5.670;2023-03-01T13:51:52;16.97;;;12.03;;
25125;SDS011;13106;50.808;5.670;2023-03-01T13:54:25;17.85;;;11.85;;
25125;SDS011;13106;50.808;5.670;2023-03-01T13:56:52;17.45;;;12.68;;
25125;SDS011;13106;50.808;5.670;2023-03-01T13:59:19;15.45;;;11.95;;
25125;SDS011;13106;50.808;5.670;2023-03-01T14:01:56;16.20;;;11.80;;
25125;SDS011;13106;50.808;5.670;2023-03-01T14:04:24;18.40;;;12.02;;
25125;SDS011;13106;50.808;5.670;2023-03-01T14:06:51;18.20;;;11.45;;
25125;SDS011;13106;50.808;5.670;2023-03-01T14:09:19;17.02;;;11.90;;
25125;SDS011;13106;50.808;5.670;2023-03-01T14:14:32;16.98;;;12.40;;
25125;SDS011;13106;50.808;5.670;2023-03-01T14:19:37;16.83;;;12.48;;
25125;SDS011;13106;50.808;5.670;2023-03-01T14:24:51;13.70;;;10.98;;
25125;SDS011;13106;50.808;5.670;2023-03-01T14:27:18;15.63;;;11.65;;
25125;SDS011;13106;50.808;5.670;2023-03-01T14:29:45;15.82;;;11.43;;
25125;SDS011;13106;50.808;5.670;2023-03-01T14:32:20;16.00;;;11.27;;
25125;SDS011;13106;50.808;5.670;2023-03-01T14:34:47;14.85;;;11.55;;
25125;SDS011;13106;50.808;5.670;2023-03-01T14:37:21;15.73;;;11.38;;
25125;SDS011;13106;50.808;5.670;2023-03-01T14:39:47;19.17;;;11.75;;
25125;SDS011;13106;50.808;5.670;2023-03-01T14:42:14;16.67;;;12.15;;
25125;SDS011;13106;50.808;5.670;2023-03-01T14:44:41;14.40;;;11.60;;
25125;SDS011;13106;50.808;5.670;2023-03-01T14:47:25;16.63;;;11.57;;
25125;SDS011;13106;50.808;5.670;2023-03-01T14:49:55;14.98;;;11.23;;
25125;SDS011;13106;50.808;5.670;2023-03-01T14:52:22;15.95;;;11.05;;
25125;SDS011;13106;50.808;5.670;2023-03-01T14:54:51;13.13;;;10.63;;
25125;SDS011;13106;50.808;5.670;2023-03-01T14:57:19;13.25;;;10.60;;
25125;SDS011;13106;50.808;5.670;2023-03-01T14:59:49;15.98;;;11.45;;
25125;SDS011;13106;50.808;5.670;2023-03-01T15:02:18;13.75;;;9.85;;
25125;SDS011;13106;50.808;5.670;2023-03-01T15:04:46;12.68;;;10.65;;
25125;SDS011;13106;50.808;5.670;2023-03-01T15:07:13;15.00;;;10.85;;
25125;SDS011;13106;50.808;5.670;2023-03-01T15:09:39;14.63;;;10.70;;
25125;SDS011;13106;50.808;5.670;2023-03-01T15:14:50;17.58;;;9.50;;
25125;SDS011;13106;50.808;5.670;2023-03-01T15:19:47;14.80;;;11.52;;
25125;SDS011;13106;50.808;5.670;2023-03-01T15:22:16;14.68;;;9.60;;
25125;SDS011;13106;50.808;5.670;2023-03-01T15:24:46;12.17;;;10.80;;
25125;SDS011;13106;50.808;5.670;2023-03-01T15:27:14;13.05;;;9.30;;
25125;SDS011;13106;50.808;5.670;2023-03-01T15:29:41;11.90;;;8.93;;
25125;SDS011;13106;50.808;5.670;2023-03-01T15:34:55;14.30;;;8.63;;
25125;SDS011;13106;50.808;5.670;2023-03-01T15:42:45;12.82;;;9.88;;
25125;SDS011;13106;50.808;5.670;2023-03-01T15:47:43;16.00;;;10.18;;
25125;SDS011;13106;50.808;5.670;2023-03-01T15:50:18;11.68;;;8.27;;
25125;SDS011;13106;50.808;5.670;2023-03-01T15:52:44;15.52;;;8.48;;
25125;SDS011;13106;50.808;5.670;2023-03-01T15:55:44;11.27;;;8.55;;
25125;SDS011;13106;50.808;5.670;2023-03-01T15:58:09;17.08;;;8.30;;
25125;SDS011;13106;50.808;5.670;2023-03-01T16:00:35;12.60;;;7.97;;
25125;SDS011;13106;50.808;5.670;2023-03-01T16:03:02;14.65;;;8.40;;
25125;SDS011;13106;50.808;5.670;2023-03-01T16:05:29;13.70;;;7.90;;
25125;SDS011;13106;50.808;5.670;2023-03-01T16:07:56;12.30;;;8.38;;
25125;SDS011;13106;50.808;5.670;2023-03-01T16:10:22;15.65;;;9.32;;
25125;SDS011;13106;50.808;5.670;2023-03-01T16:12:49;13.60;;;8.93;;
25125;SDS011;13106;50.808;5.670;2023-03-01T16:15:20;13.52;;;8.70;;
25125;SDS011;13106;50.808;5.670;2023-03-01T16:17:47;13.48;;;7.82;;
25125;SDS011;13106;50.808;5.670;2023-03-01T16:20:13;13.68;;;8.07;;
25125;SDS011;13106;50.808;5.670;2023-03-01T16:22:41;9.63;;;7.35;;
25125;SDS011;13106;50.808;5.670;2023-03-01T16:25:09;11.45;;;7.40;;
25125;SDS011;13106;50.808;5.670;2023-03-01T16:27:35;13.95;;;8.18;;
25125;SDS011;13106;50.808;5.670;2023-03-01T16:30:01;12.63;;;8.18;;
25125;SDS011;13106;50.808;5.670;2023-03-01T16:32:27;9.98;;;7.53;;